TUP9619 UUBW-UUWW
Flight info
| Callsign | TUP9619 |
|---|---|
| Flight time | 0h 15m |
| Altitude | 10000 |
| Route | K0583F100 ANDIF DCT IMZUP DCT GEGNA DCT KIBUR DCT LO DCT BEMAS DCT TEBDI DCT TEPTA DCT RONEZ DCT TOLKE DCT TADUT DCT FIDOT DCT RORUK |
| Aircraft | B752/M-SDE2E3FGHIJ3J4J7RWXY/LB1 |
Departure
| Time | 2026-04-29 17:33 |
|---|---|
| Airport | Zhukovsky International Airport (UUBW) |
Arrival
| Time | 2026-04-29 17:48 |
|---|---|
| Airport | Vnukovo International Airport (UUWW) |
| Time | Latitude | Longitude | Altitude | Speed | Heading |
|---|---|---|---|---|---|
| 2026-04-29 17:24 | 55.56014 | 38.12265 | 383 ft | 5 kts | 10° |
| 2026-04-29 17:24 | 55.56054 | 38.12297 | 383 ft | 7 kts | 32° |
| 2026-04-29 17:24 | 55.56096 | 38.12358 | 383 ft | 7 kts | 42° |
| 2026-04-29 17:25 | 55.56137 | 38.12423 | 383 ft | 7 kts | 41° |
| 2026-04-29 17:25 | 55.56177 | 38.12487 | 383 ft | 7 kts | 46° |
| 2026-04-29 17:25 | 55.56181 | 38.12563 | 383 ft | 6 kts | 120° |
| 2026-04-29 17:25 | 55.56150 | 38.12629 | 383 ft | 7 kts | 131° |
| 2026-04-29 17:26 | 55.56115 | 38.12701 | 383 ft | 7 kts | 124° |
| 2026-04-29 17:26 | 55.56088 | 38.12786 | 383 ft | 8 kts | 112° |
| 2026-04-29 17:26 | 55.56059 | 38.12871 | 383 ft | 8 kts | 129° |
| 2026-04-29 17:26 | 55.56022 | 38.12947 | 383 ft | 8 kts | 131° |
| 2026-04-29 17:27 | 55.55983 | 38.13024 | 383 ft | 8 kts | 131° |
| 2026-04-29 17:27 | 55.55942 | 38.13106 | 383 ft | 8 kts | 131° |
| 2026-04-29 17:27 | 55.55900 | 38.13190 | 383 ft | 9 kts | 131° |
| 2026-04-29 17:27 | 55.55854 | 38.13280 | 383 ft | 11 kts | 131° |
| 2026-04-29 17:28 | 55.55785 | 38.13420 | 383 ft | 18 kts | 131° |
| 2026-04-29 17:28 | 55.55685 | 38.13618 | 383 ft | 24 kts | 131° |
| 2026-04-29 17:28 | 55.55566 | 38.13857 | 383 ft | 26 kts | 131° |
| 2026-04-29 17:28 | 55.55445 | 38.14094 | 383 ft | 25 kts | 131° |
| 2026-04-29 17:29 | 55.55326 | 38.14331 | 383 ft | 25 kts | 131° |
| 2026-04-29 17:29 | 55.55207 | 38.14567 | 383 ft | 25 kts | 132° |
| 2026-04-29 17:29 | 55.55088 | 38.14804 | 383 ft | 25 kts | 131° |
| 2026-04-29 17:29 | 55.55009 | 38.14961 | 383 ft | 25 kts | 131° |
| 2026-04-29 17:30 | 55.54853 | 38.15272 | 383 ft | 25 kts | 131° |
| 2026-04-29 17:30 | 55.54736 | 38.15505 | 383 ft | 25 kts | 131° |
| 2026-04-29 17:30 | 55.54620 | 38.15733 | 383 ft | 25 kts | 131° |
| 2026-04-29 17:30 | 55.54535 | 38.15903 | 383 ft | 24 kts | 131° |
| 2026-04-29 17:31 | 55.54424 | 38.16121 | 384 ft | 24 kts | 131° |
| 2026-04-29 17:31 | 55.54324 | 38.16322 | 383 ft | 19 kts | 131° |
| 2026-04-29 17:31 | 55.54274 | 38.16455 | 384 ft | 11 kts | 93° |
| 2026-04-29 17:31 | 55.54315 | 38.16566 | 383 ft | 9 kts | 42° |
| 2026-04-29 17:32 | 55.54366 | 38.16646 | 384 ft | 9 kts | 41° |
| 2026-04-29 17:32 | 55.54418 | 38.16685 | 383 ft | 7 kts | 341° |
| 2026-04-29 17:32 | 55.54440 | 38.16655 | 383 ft | 1 kts | 312° |
| 2026-04-29 17:32 | 55.54453 | 38.16630 | 383 ft | 4 kts | 312° |
| 2026-04-29 17:33 | 55.54570 | 38.16399 | 384 ft | 58 kts | 311° |
| 2026-04-29 17:33 | 55.55017 | 38.15512 | 385 ft | 134 kts | 311° |
| 2026-04-29 17:33 | 55.55741 | 38.14127 | 733 ft | 160 kts | 316° |
| 2026-04-29 17:33 | 55.56541 | 38.12780 | 1462 ft | 162 kts | 317° |
| 2026-04-29 17:34 | 55.57290 | 38.11423 | 2302 ft | 153 kts | 316° |
| 2026-04-29 17:34 | 55.57983 | 38.10004 | 3012 ft | 157 kts | 313° |
| 2026-04-29 17:34 | 55.58662 | 38.08541 | 3802 ft | 155 kts | 314° |
| 2026-04-29 17:34 | 55.59376 | 38.07040 | 4319 ft | 170 kts | 314° |
| 2026-04-29 17:35 | 55.60208 | 38.03654 | 5211 ft | 206 kts | 276° |
| 2026-04-29 17:35 | 55.59744 | 38.00203 | 6001 ft | 234 kts | 242° |
| 2026-04-29 17:35 | 55.58861 | 37.97754 | 6739 ft | 245 kts | 241° |
| 2026-04-29 17:36 | 55.57926 | 37.95085 | 7022 ft | 271 kts | 241° |
| 2026-04-29 17:36 | 55.56890 | 37.92196 | 6997 ft | 281 kts | 240° |
| 2026-04-29 17:36 | 55.55839 | 37.89297 | 6988 ft | 277 kts | 240° |
| 2026-04-29 17:36 | 55.54819 | 37.86435 | 6995 ft | 277 kts | 243° |
| 2026-04-29 17:37 | 55.53909 | 37.83406 | 6996 ft | 277 kts | 246° |
| 2026-04-29 17:37 | 55.53020 | 37.80398 | 6993 ft | 276 kts | 246° |
| 2026-04-29 17:37 | 55.52124 | 37.77402 | 6994 ft | 276 kts | 245° |
| 2026-04-29 17:37 | 55.51238 | 37.74447 | 6994 ft | 275 kts | 245° |
| 2026-04-29 17:38 | 55.50341 | 37.71466 | 6997 ft | 275 kts | 247° |
| 2026-04-29 17:38 | 55.49558 | 37.68394 | 6994 ft | 274 kts | 250° |
| 2026-04-29 17:38 | 55.48793 | 37.65297 | 6998 ft | 275 kts | 250° |
| 2026-04-29 17:38 | 55.48217 | 37.62162 | 6964 ft | 264 kts | 267° |
| 2026-04-29 17:39 | 55.48043 | 37.59033 | 6990 ft | 257 kts | 267° |
| 2026-04-29 17:39 | 55.47822 | 37.55843 | 6591 ft | 266 kts | 265° |
| 2026-04-29 17:39 | 55.47541 | 37.52669 | 6312 ft | 258 kts | 265° |
| 2026-04-29 17:39 | 55.47257 | 37.49567 | 6045 ft | 256 kts | 265° |
| 2026-04-29 17:40 | 55.46967 | 37.46471 | 5787 ft | 257 kts | 265° |
| 2026-04-29 17:40 | 55.46670 | 37.43372 | 5517 ft | 253 kts | 265° |
| 2026-04-29 17:40 | 55.46378 | 37.40356 | 5254 ft | 249 kts | 265° |
| 2026-04-29 17:40 | 55.46086 | 37.37361 | 4990 ft | 246 kts | 265° |
| 2026-04-29 17:41 | 55.45797 | 37.34406 | 4726 ft | 244 kts | 264° |
| 2026-04-29 17:41 | 55.45510 | 37.31494 | 4474 ft | 241 kts | 264° |
| 2026-04-29 17:41 | 55.45226 | 37.28611 | 4216 ft | 239 kts | 264° |
| 2026-04-29 17:41 | 55.44940 | 37.25720 | 3952 ft | 237 kts | 264° |
| 2026-04-29 17:42 | 55.44660 | 37.22903 | 3689 ft | 235 kts | 264° |
| 2026-04-29 17:42 | 55.44378 | 37.20061 | 3424 ft | 233 kts | 264° |
| 2026-04-29 17:42 | 55.44116 | 37.17294 | 3167 ft | 230 kts | 270° |
| 2026-04-29 17:42 | 55.44394 | 37.14644 | 3014 ft | 212 kts | 305° |
| 2026-04-29 17:43 | 55.45303 | 37.12792 | 3001 ft | 193 kts | 319° |
| 2026-04-29 17:43 | 55.46250 | 37.11196 | 2987 ft | 189 kts | 320° |
| 2026-04-29 17:43 | 55.47247 | 37.09575 | 3017 ft | 196 kts | 321° |
| 2026-04-29 17:43 | 55.48251 | 37.07990 | 3027 ft | 192 kts | 322° |
| 2026-04-29 17:44 | 55.49306 | 37.06578 | 2991 ft | 188 kts | 337° |
| 2026-04-29 17:44 | 55.50493 | 37.05801 | 2840 ft | 180 kts | 342° |
| 2026-04-29 17:44 | 55.51614 | 37.05102 | 2725 ft | 160 kts | 341° |
| 2026-04-29 17:44 | 55.52625 | 37.04480 | 2545 ft | 150 kts | 342° |
| 2026-04-29 17:45 | 55.53651 | 37.04479 | 2519 ft | 154 kts | 25° |
| 2026-04-29 17:45 | 55.54389 | 37.05874 | 2546 ft | 167 kts | 60° |
| 2026-04-29 17:45 | 55.54881 | 37.07741 | 2503 ft | 163 kts | 59° |
| 2026-04-29 17:45 | 55.55332 | 37.09494 | 2525 ft | 152 kts | 60° |
| 2026-04-29 17:46 | 55.55749 | 37.11201 | 2309 ft | 148 kts | 62° |
| 2026-04-29 17:46 | 55.56121 | 37.12792 | 2061 ft | 133 kts | 62° |
| 2026-04-29 17:46 | 55.56466 | 37.14275 | 1884 ft | 132 kts | 60° |
| 2026-04-29 17:46 | 55.56821 | 37.15812 | 1715 ft | 135 kts | 62° |
| 2026-04-29 17:47 | 55.57192 | 37.17389 | 1592 ft | 141 kts | 63° |
| 2026-04-29 17:47 | 55.57553 | 37.19018 | 1367 ft | 143 kts | 65° |
| 2026-04-29 17:47 | 55.57923 | 37.20688 | 1149 ft | 148 kts | 63° |
| 2026-04-29 17:47 | 55.58305 | 37.22338 | 929 ft | 144 kts | 65° |
| 2026-04-29 17:48 | 55.58672 | 37.24000 | 735 ft | 146 kts | 63° |
| 2026-04-29 17:48 | 55.59039 | 37.25598 | 701 ft | 130 kts | 68° |
| 2026-04-29 17:48 | 55.59358 | 37.27043 | 701 ft | 100 kts | 68° |
| 2026-04-29 17:48 | 55.59513 | 37.27730 | 700 ft | 35 kts | 68° |
| 2026-04-29 17:49 | 55.59600 | 37.28025 | 700 ft | 26 kts | 54° |
| 2026-04-29 17:49 | 55.59706 | 37.28209 | 700 ft | 25 kts | 39° |
| 2026-04-29 17:49 | 55.59770 | 37.28301 | 700 ft | 6 kts | 38° |
| 2026-04-29 17:49 | 55.59810 | 37.28357 | 700 ft | 7 kts | 38° |
| 2026-04-29 17:50 | 55.59848 | 37.28418 | 700 ft | 7 kts | 52° |
| 2026-04-29 17:50 | 55.59871 | 37.28503 | 700 ft | 8 kts | 68° |
| 2026-04-29 17:50 | 55.59898 | 37.28626 | 700 ft | 11 kts | 68° |
| 2026-04-29 17:50 | 55.59930 | 37.28770 | 700 ft | 14 kts | 68° |
| 2026-04-29 17:51 | 55.59975 | 37.28912 | 700 ft | 6 kts | 21° |
| 2026-04-29 17:51 | 55.60024 | 37.28902 | 700 ft | 7 kts | 346° |
| 2026-04-29 17:51 | 55.60104 | 37.28865 | 700 ft | 14 kts | 338° |
| 2026-04-29 17:51 | 55.60196 | 37.28723 | 700 ft | 18 kts | 304° |
| 2026-04-29 17:52 | 55.60163 | 37.28560 | 700 ft | 14 kts | 226° |
| 2026-04-29 17:52 | 55.60112 | 37.28462 | 700 ft | 20 kts | 232° |
| 2026-04-29 17:52 | 55.60075 | 37.28096 | 700 ft | 23 kts | 275° |
| 2026-04-29 17:52 | 55.60160 | 37.27870 | 700 ft | 22 kts | 333° |
| 2026-04-29 17:53 | 55.60313 | 37.27846 | 700 ft | 22 kts | 6° |
| 2026-04-29 17:53 | 55.60448 | 37.27943 | 700 ft | 21 kts | 45° |
| 2026-04-29 17:53 | 55.60542 | 37.28106 | 700 ft | 14 kts | 31° |
| 2026-04-29 17:53 | 55.60606 | 37.28075 | 700 ft | 5 kts | 316° |
| 2026-04-29 17:54 | 55.60640 | 37.28033 | 700 ft | 6 kts | 343° |
| 2026-04-29 17:54 | 55.60678 | 37.28054 | 700 ft | 6 kts | 41° |
| 2026-04-29 17:54 | 55.60698 | 37.28090 | 700 ft | 2 kts | 44° |
| 2026-04-29 17:54 | 55.60700 | 37.28093 | 700 ft | 0 kts | 44° |